createdAt,value
2023-03-23T00:00:44.384Z,276.69
2023-03-23T00:01:47.623Z,286.93
2023-03-23T00:02:49.936Z,292.05
2023-03-23T00:03:52.332Z,297.17
2023-03-23T00:04:55.612Z,304.85
2023-03-23T00:05:58.813Z,266.45
2023-03-23T00:07:02.093Z,263.89
2023-03-23T00:08:05.502Z,261.33
2023-03-23T00:09:08.770Z,240.85
2023-03-23T00:10:12.040Z,297.17
2023-03-23T00:11:15.374Z,304.85
2023-03-23T00:12:18.697Z,312.53
2023-03-23T00:13:21.839Z,317.65
2023-03-23T00:14:25.261Z,317.65
2023-03-23T00:15:28.416Z,315.09
2023-03-23T00:16:31.729Z,322.77
2023-03-23T00:17:34.079Z,320.21
2023-03-23T00:18:37.430Z,-319.79
2023-03-23T00:19:40.736Z,-312.11
2023-03-23T00:20:44.057Z,-324.91
2023-03-23T00:21:47.412Z,-312.11
2023-03-23T00:22:50.642Z,-312.11
2023-03-23T00:23:53.857Z,-299.31
2023-03-23T00:24:56.099Z,-304.43
2023-03-23T00:25:58.397Z,-299.31
2023-03-23T00:27:01.711Z,-304.43
2023-03-23T00:28:05.124Z,-317.23
2023-03-23T00:29:08.419Z,-296.75
2023-03-23T00:30:11.574Z,-289.07
2023-03-23T00:31:15.070Z,-291.63
2023-03-23T00:32:18.193Z,-296.75
2023-03-23T00:33:21.637Z,-299.31
2023-03-23T00:34:24.822Z,-301.87
2023-03-23T00:35:28.057Z,-299.31
2023-03-23T00:36:31.454Z,-309.55
2023-03-23T00:37:34.716Z,-312.11
2023-03-23T00:38:37.933Z,-309.55
2023-03-23T00:39:40.336Z,-312.11
2023-03-23T00:40:43.688Z,-314.67
2023-03-23T00:41:46.989Z,-309.55
2023-03-23T00:42:50.114Z,-312.11
2023-03-23T00:43:53.515Z,-319.79
2023-03-23T00:44:56.698Z,-317.23
2023-03-23T00:45:59.995Z,-322.35
2023-03-23T00:47:02.309Z,-319.79
2023-03-23T00:48:04.660Z,325.33
2023-03-23T00:49:07.049Z,-324.91
2023-03-23T00:50:09.316Z,-327.47
2023-03-23T00:51:12.586Z,-327.47
2023-03-23T00:52:15.948Z,-327.47
2023-03-23T00:53:19.111Z,322.77
2023-03-23T00:54:22.384Z,312.53
2023-03-23T00:55:25.686Z,312.53
2023-03-23T00:56:29.080Z,317.65
2023-03-23T00:57:32.340Z,312.53
2023-03-23T00:58:35.664Z,312.53
2023-03-23T00:59:38.974Z,312.53
2023-03-23T01:00:42.337Z,312.53
2023-03-23T01:01:45.425Z,309.97
2023-03-23T01:02:48.701Z,307.41
2023-03-23T01:03:51.143Z,307.41
2023-03-23T01:04:54.343Z,302.29
2023-03-23T01:05:57.631Z,299.73
2023-03-23T01:07:00.947Z,292.05
2023-03-23T01:08:04.218Z,302.29
2023-03-23T01:09:07.569Z,297.17
2023-03-23T01:10:11.583Z,309.97
2023-03-23T01:11:13.777Z,307.41
2023-03-23T01:12:16.206Z,312.53
2023-03-23T01:13:19.537Z,312.53
2023-03-23T01:14:21.869Z,312.53
2023-03-23T01:15:24.059Z,312.53
2023-03-23T01:16:27.376Z,312.53
2023-03-23T01:17:30.696Z,307.41
2023-03-23T01:18:34.020Z,307.41
2023-03-23T01:19:37.163Z,297.17
2023-03-23T01:20:40.455Z,0
2023-03-23T01:21:43.927Z,304.85
2023-03-23T01:22:47.232Z,304.85
2023-03-23T01:23:50.337Z,302.29
2023-03-23T01:24:53.759Z,292.05
2023-03-23T01:25:57.006Z,292.05
2023-03-23T01:27:00.345Z,297.17
2023-03-23T01:28:03.656Z,292.05
2023-03-23T01:29:05.911Z,281.81
2023-03-23T01:30:09.101Z,281.81
2023-03-23T01:31:12.415Z,294.61
2023-03-23T01:32:15.800Z,294.61
2023-03-23T01:33:19.153Z,292.05
2023-03-23T01:34:22.284Z,289.49
2023-03-23T01:35:25.572Z,297.17
2023-03-23T01:36:27.901Z,276.69
2023-03-23T01:37:30.336Z,253.65
2023-03-23T01:38:32.587Z,263.89
2023-03-23T01:39:34.898Z,251.09
2023-03-23T01:40:38.294Z,258.77
2023-03-23T01:41:41.588Z,258.77
2023-03-23T01:42:44.766Z,258.77
2023-03-23T01:43:48.187Z,271.57
2023-03-23T01:44:51.465Z,274.13
2023-03-23T01:45:54.617Z,266.45
2023-03-23T01:46:57.999Z,258.77
2023-03-23T01:48:01.168Z,233.17
2023-03-23T01:49:04.575Z,212.69
2023-03-23T01:50:07.806Z,256.21
2023-03-23T01:51:11.908Z,238.29
2023-03-23T01:52:15.121Z,235.73
2023-03-23T01:53:17.481Z,215.25
2023-03-23T01:54:20.653Z,194.77
2023-03-23T01:55:23.925Z,217.81
2023-03-23T01:56:27.209Z,207.57
2023-03-23T01:57:30.583Z,187.09
2023-03-23T01:58:33.994Z,171.73
2023-03-23T01:59:37.207Z,210.13
2023-03-23T02:00:39.469Z,210.13
2023-03-23T02:01:41.708Z,0
2023-03-23T02:02:44.182Z,179.41
2023-03-23T02:03:46.323Z,181.97
2023-03-23T02:04:49.768Z,184.53
2023-03-23T02:05:52.920Z,215.25
2023-03-23T02:06:56.327Z,184.53
2023-03-23T02:07:59.495Z,194.77
2023-03-23T02:09:02.846Z,256.21
2023-03-23T02:10:06.198Z,307.41
2023-03-23T02:11:09.393Z,263.89
2023-03-23T02:12:12.808Z,233.17
2023-03-23T02:13:16.036Z,207.57
2023-03-23T02:14:19.350Z,197.33
2023-03-23T02:15:22.588Z,222.93
2023-03-23T02:16:25.848Z,207.57
2023-03-23T02:17:28.188Z,212.69
2023-03-23T02:18:31.505Z,210.13
2023-03-23T02:19:34.852Z,215.25
2023-03-23T02:20:38.154Z,215.25
2023-03-23T02:21:41.387Z,230.61
2023-03-23T02:22:44.689Z,222.93
2023-03-23T02:23:47.876Z,207.57
2023-03-23T02:24:50.241Z,212.69
2023-03-23T02:25:52.642Z,199.89
2023-03-23T02:26:54.894Z,192.21
2023-03-23T02:27:57.259Z,217.81
2023-03-23T02:29:00.524Z,199.89
2023-03-23T02:30:03.728Z,197.33
2023-03-23T02:31:07.006Z,171.73
2023-03-23T02:32:10.319Z,210.13
2023-03-23T02:33:13.758Z,189.65
2023-03-23T02:34:17.005Z,179.41
2023-03-23T02:35:20.312Z,176.85
2023-03-23T02:36:23.537Z,184.53
2023-03-23T02:37:26.822Z,294.61
2023-03-23T02:38:30.201Z,253.65
2023-03-23T02:39:33.458Z,199.89
2023-03-23T02:40:36.696Z,194.77
2023-03-23T02:41:38.952Z,171.73
2023-03-23T02:42:42.408Z,164.05
2023-03-23T02:43:45.684Z,189.65
2023-03-23T02:44:48.959Z,197.33
2023-03-23T02:45:52.150Z,207.57
2023-03-23T02:46:55.447Z,197.33
2023-03-23T02:47:58.753Z,222.93
2023-03-23T02:49:00.991Z,233.17
2023-03-23T02:50:03.421Z,181.97
2023-03-23T02:51:05.705Z,210.13
2023-03-23T02:52:08.052Z,197.33
2023-03-23T02:53:11.453Z,187.09
2023-03-23T02:54:15.339Z,202.45
2023-03-23T02:55:18.595Z,192.21
2023-03-23T02:56:21.862Z,187.09
2023-03-23T02:57:25.221Z,199.89
2023-03-23T02:58:28.533Z,197.33
2023-03-23T02:59:31.721Z,184.53
2023-03-23T03:00:35.022Z,164.05
2023-03-23T03:01:38.370Z,179.41
2023-03-23T03:02:41.658Z,192.21
2023-03-23T03:03:45.020Z,158.93
2023-03-23T03:04:48.323Z,166.61
2023-03-23T03:05:50.605Z,161.49
2023-03-23T03:06:53.800Z,184.53
2023-03-23T03:07:57.093Z,187.09
2023-03-23T03:09:00.502Z,171.73
2023-03-23T03:10:03.659Z,164.05
2023-03-23T03:11:07.088Z,158.93
2023-03-23T03:12:10.337Z,166.61
2023-03-23T03:13:12.647Z,251.09
2023-03-23T03:14:14.945Z,207.57
2023-03-23T03:15:18.326Z,174.29
2023-03-23T03:16:21.465Z,197.33
2023-03-23T03:17:24.814Z,187.09
2023-03-23T03:18:28.152Z,151.25
2023-03-23T03:19:31.369Z,141.01
2023-03-23T03:20:34.724Z,174.29
2023-03-23T03:21:37.920Z,164.05
2023-03-23T03:22:41.284Z,251.09
2023-03-23T03:23:44.505Z,266.45
2023-03-23T03:24:47.790Z,225.49
2023-03-23T03:25:51.237Z,222.93
2023-03-23T03:26:54.371Z,174.29
2023-03-23T03:27:56.700Z,192.21
2023-03-23T03:29:00.130Z,158.93
2023-03-23T03:30:03.310Z,174.29
2023-03-23T03:31:06.631Z,174.29
2023-03-23T03:32:09.934Z,176.85
2023-03-23T03:33:13.170Z,179.41
2023-03-23T03:34:16.486Z,171.73
2023-03-23T03:35:18.885Z,176.85
2023-03-23T03:36:21.060Z,156.37
2023-03-23T03:37:23.377Z,153.81
2023-03-23T03:38:25.766Z,166.61
2023-03-23T03:39:29.043Z,0
2023-03-23T03:40:32.432Z,187.09
2023-03-23T03:41:35.639Z,269.01
2023-03-23T03:42:38.887Z,225.49
2023-03-23T03:43:42.343Z,174.29
2023-03-23T03:44:45.561Z,148.69
2023-03-23T03:45:48.735Z,135.89
2023-03-23T03:46:52.134Z,130.77
2023-03-23T03:47:55.318Z,123.09
2023-03-23T03:48:58.712Z,117.97
2023-03-23T03:50:02.057Z,141.01
2023-03-23T03:51:05.190Z,130.77
2023-03-23T03:52:07.491Z,135.89
2023-03-23T03:53:10.857Z,146.13
2023-03-23T03:54:14.179Z,138.45
2023-03-23T03:55:17.452Z,146.13
2023-03-23T03:56:20.817Z,153.81
2023-03-23T03:57:24.004Z,153.81
2023-03-23T03:58:27.271Z,141.01
2023-03-23T03:59:29.576Z,135.89
2023-03-23T04:00:31.943Z,133.33
2023-03-23T04:01:34.198Z,130.77
2023-03-23T04:02:36.610Z,141.01
2023-03-23T04:03:39.774Z,161.49
2023-03-23T04:04:43.199Z,166.61
2023-03-23T04:05:46.541Z,169.17
2023-03-23T04:06:49.702Z,158.93
2023-03-23T04:07:52.999Z,135.89
2023-03-23T04:08:56.226Z,248.53
2023-03-23T04:09:59.528Z,261.33
2023-03-23T04:11:02.921Z,284.37
2023-03-23T04:12:06.139Z,281.81
2023-03-23T04:13:09.641Z,284.37
2023-03-23T04:14:12.925Z,281.81
2023-03-23T04:15:16.225Z,289.49
2023-03-23T04:16:18.554Z,289.49
2023-03-23T04:17:21.833Z,292.05
2023-03-23T04:18:25.163Z,253.65
2023-03-23T04:19:28.475Z,276.69
2023-03-23T04:20:31.698Z,41.35
2023-03-23T04:21:35.095Z,304.85
2023-03-23T04:22:38.397Z,302.29
2023-03-23T04:23:40.737Z,312.53
2023-03-23T04:24:42.920Z,302.29
2023-03-23T04:25:45.452Z,307.41
2023-03-23T04:26:47.629Z,297.17
2023-03-23T04:27:50.953Z,307.41
2023-03-23T04:28:54.199Z,302.29
2023-03-23T04:29:57.479Z,307.41
2023-03-23T04:31:00.686Z,284.37
2023-03-23T04:32:04.002Z,253.65
2023-03-23T04:33:07.450Z,266.45
2023-03-23T04:34:10.590Z,276.69
2023-03-23T04:35:13.962Z,238.29
2023-03-23T04:36:17.160Z,266.45
2023-03-23T04:37:20.569Z,258.77
2023-03-23T04:38:23.829Z,238.29
2023-03-23T04:40:30.464Z,187.09
2023-03-23T04:41:32.631Z,169.17
2023-03-23T04:42:36.032Z,156.37
2023-03-23T04:43:39.372Z,141.01
2023-03-23T04:44:42.536Z,181.97
2023-03-23T04:45:45.799Z,169.17
2023-03-23T04:46:49.080Z,181.97
2023-03-23T04:47:52.543Z,176.85
2023-03-23T04:48:54.785Z,205.01
2023-03-23T04:49:57.186Z,199.89
2023-03-23T04:51:00.414Z,207.57
2023-03-23T04:52:02.678Z,210.13
2023-03-23T04:53:05.052Z,233.17
2023-03-23T04:54:08.362Z,207.57
2023-03-23T04:55:11.613Z,238.29
2023-03-23T04:56:14.957Z,228.05
2023-03-23T04:57:18.121Z,240.85
2023-03-23T04:58:21.496Z,248.53
2023-03-23T04:59:24.783Z,222.93
2023-03-23T05:00:27.943Z,233.17
2023-03-23T05:01:31.391Z,253.65
2023-03-23T05:02:34.597Z,253.65
2023-03-23T05:03:37.965Z,258.77
2023-03-23T05:04:41.135Z,251.09
2023-03-23T05:05:44.546Z,222.93
2023-03-23T05:06:46.737Z,248.53
2023-03-23T05:07:50.107Z,238.29
2023-03-23T05:08:53.303Z,238.29
2023-03-23T05:09:56.608Z,261.33
2023-03-23T05:10:59.978Z,245.97
2023-03-23T05:12:03.203Z,253.65
2023-03-23T05:13:06.525Z,238.29
2023-03-23T05:14:08.799Z,258.77
2023-03-23T05:15:11.122Z,302.29
2023-03-23T05:16:14.549Z,269.01
2023-03-23T05:17:17.733Z,276.69
2023-03-23T05:18:21.033Z,307.41
2023-03-23T05:19:24.332Z,322.77
2023-03-23T05:20:27.670Z,-309.55
2023-03-23T05:21:30.940Z,-294.19
2023-03-23T05:22:34.299Z,-309.55
2023-03-23T05:23:37.547Z,-317.23
2023-03-23T05:24:40.902Z,-309.55
2023-03-23T05:25:44.177Z,-306.99
2023-03-23T05:26:47.446Z,315.09
2023-03-23T05:27:50.600Z,-319.79
2023-03-23T05:28:53.081Z,299.73
2023-03-23T05:29:56.186Z,-322.35
2023-03-23T05:30:59.604Z,-317.23
2023-03-23T05:32:02.898Z,-317.23
2023-03-23T05:33:06.115Z,-317.23
2023-03-23T05:34:09.360Z,-299.31
2023-03-23T05:35:13.279Z,-317.23
2023-03-23T05:36:15.550Z,-306.99
2023-03-23T05:37:17.918Z,-294.19
2023-03-23T05:38:20.368Z,-289.07
2023-03-23T05:39:22.561Z,0
2023-03-23T05:40:25.770Z,-299.31
2023-03-23T05:41:29.059Z,-299.31
2023-03-23T05:42:32.541Z,-304.43
2023-03-23T05:43:35.658Z,-317.23
2023-03-23T05:44:38.955Z,-317.23
2023-03-23T05:45:42.411Z,-312.11
2023-03-23T05:46:45.669Z,322.77
2023-03-23T05:47:48.894Z,256.21
2023-03-23T05:48:52.225Z,220.37
2023-03-23T05:49:55.411Z,192.21
2023-03-23T05:50:58.701Z,166.61
2023-03-23T05:52:02.058Z,130.77
2023-03-23T05:53:04.412Z,128.21
2023-03-23T05:54:07.763Z,156.37
2023-03-23T05:55:10.986Z,148.69
2023-03-23T05:56:14.265Z,153.81
2023-03-23T05:57:17.665Z,143.57
2023-03-23T05:58:20.787Z,143.57
2023-03-23T05:59:24.037Z,120.53
2023-03-23T06:00:26.479Z,189.65
2023-03-23T06:01:28.860Z,156.37
2023-03-23T06:02:32.006Z,151.25
2023-03-23T06:03:35.241Z,164.05
2023-03-23T06:04:38.653Z,135.89
2023-03-23T06:05:42.002Z,110.29
2023-03-23T06:06:45.267Z,138.45
2023-03-23T06:07:48.618Z,115.41
2023-03-23T06:08:51.825Z,107.73
2023-03-23T06:09:55.146Z,115.41
2023-03-23T06:10:58.440Z,130.77
2023-03-23T06:12:01.692Z,110.29
2023-03-23T06:13:04.965Z,100.05
2023-03-23T06:14:08.371Z,120.53
2023-03-23T06:15:10.655Z,117.97
2023-03-23T06:16:13.775Z,105.17
2023-03-23T06:17:17.268Z,97.49
2023-03-23T06:18:20.532Z,138.45
2023-03-23T06:19:23.816Z,112.85
2023-03-23T06:20:27.126Z,102.61
2023-03-23T06:21:30.230Z,92.37
2023-03-23T06:22:32.701Z,130.77
2023-03-23T06:23:35.027Z,107.73
2023-03-23T06:24:37.348Z,112.85
2023-03-23T06:25:39.492Z,89.81
2023-03-23T06:26:42.938Z,92.37
2023-03-23T06:27:46.040Z,166.61
2023-03-23T06:28:49.502Z,120.53
2023-03-23T06:29:52.841Z,107.73
2023-03-23T06:30:56.134Z,92.37
2023-03-23T06:31:59.413Z,92.37
2023-03-23T06:33:02.525Z,79.57
2023-03-23T06:34:05.893Z,77.01
2023-03-23T06:35:09.219Z,69.33
2023-03-23T06:36:12.592Z,69.33
2023-03-23T06:37:15.859Z,105.17
2023-03-23T06:38:19.141Z,89.81
2023-03-23T06:39:21.291Z,77.01
2023-03-23T06:40:24.771Z,71.89
2023-03-23T06:41:28.053Z,74.45
2023-03-23T06:42:31.351Z,82.13
2023-03-23T06:43:34.626Z,77.01
2023-03-23T06:44:37.922Z,100.05
2023-03-23T06:45:41.094Z,74.45
2023-03-23T06:46:43.505Z,92.37
2023-03-23T06:47:45.865Z,69.33
2023-03-23T06:48:48.959Z,71.89
2023-03-23T06:49:51.448Z,51.41
2023-03-23T06:50:53.567Z,74.45
2023-03-23T06:51:57.051Z,74.45
2023-03-23T06:53:00.366Z,64.21
2023-03-23T06:54:03.630Z,69.33
2023-03-23T06:55:07.022Z,61.65
2023-03-23T06:56:11.028Z,74.45
2023-03-23T06:57:14.184Z,79.57
2023-03-23T06:58:17.393Z,94.93
2023-03-23T06:59:19.566Z,79.57
2023-03-23T07:00:22.903Z,89.81
2023-03-23T07:01:26.343Z,79.57
2023-03-23T07:02:29.655Z,71.89
2023-03-23T07:03:32.943Z,84.69
2023-03-23T07:04:36.192Z,84.69
2023-03-23T07:05:39.384Z,74.45
2023-03-23T07:06:42.787Z,71.89
2023-03-23T07:07:45.975Z,0
2023-03-23T07:09:52.626Z,79.57
2023-03-23T07:10:55.949Z,84.69
2023-03-23T07:11:59.304Z,79.57
2023-03-23T07:13:01.532Z,77.01
2023-03-23T07:14:03.903Z,84.69
2023-03-23T07:15:06.003Z,84.69
2023-03-23T07:16:08.497Z,77.01
2023-03-23T07:17:11.600Z,94.93
2023-03-23T07:18:15.151Z,84.69
2023-03-23T07:19:18.402Z,94.93
2023-03-23T07:20:21.786Z,71.89
2023-03-23T07:21:24.759Z,71.89
2023-03-23T07:22:28.250Z,215.25
2023-03-23T07:23:31.447Z,279.25
2023-03-23T07:24:34.841Z,299.73
2023-03-23T07:25:38.113Z,189.65
2023-03-23T07:26:41.396Z,146.13
2023-03-23T07:27:44.712Z,128.21
2023-03-23T07:28:48.018Z,135.89
2023-03-23T07:29:50.272Z,112.85
2023-03-23T07:30:53.484Z,100.05
2023-03-23T07:31:56.889Z,87.25
2023-03-23T07:33:00.184Z,138.45
2023-03-23T07:34:03.461Z,166.61
2023-03-23T07:35:06.742Z,125.65
2023-03-23T07:36:10.014Z,100.05
2023-03-23T07:37:12.394Z,107.73
2023-03-23T07:38:14.658Z,92.37
2023-03-23T07:39:16.803Z,115.41
2023-03-23T07:40:19.322Z,138.45
2023-03-23T07:41:22.633Z,130.77
2023-03-23T07:42:25.685Z,125.65
2023-03-23T07:43:29.205Z,107.73
2023-03-23T07:44:32.363Z,94.93
2023-03-23T07:45:35.592Z,107.73
2023-03-23T07:46:39.052Z,120.53
2023-03-23T07:47:42.346Z,105.17
2023-03-23T07:48:45.522Z,125.65
2023-03-23T07:49:48.936Z,138.45
2023-03-23T07:50:52.207Z,107.73
2023-03-23T07:51:55.410Z,100.05
2023-03-23T07:52:58.771Z,133.33
2023-03-23T07:54:00.917Z,128.21
2023-03-23T07:55:04.272Z,166.61
2023-03-23T07:56:07.528Z,141.01
2023-03-23T07:57:11.049Z,176.85
2023-03-23T07:58:14.333Z,212.69
2023-03-23T07:59:17.620Z,253.65
2023-03-23T08:00:21.012Z,240.85
2023-03-23T08:01:23.238Z,248.53
2023-03-23T08:02:25.610Z,274.13
2023-03-23T08:03:27.880Z,251.09
2023-03-23T08:04:30.196Z,253.65
2023-03-23T08:05:33.590Z,243.41
2023-03-23T08:06:36.848Z,261.33
2023-03-23T08:07:40.177Z,276.69
2023-03-23T08:08:43.338Z,263.89
2023-03-23T08:09:46.786Z,284.37
2023-03-23T08:10:49.998Z,284.37
2023-03-23T08:11:53.350Z,248.53
2023-03-23T08:12:56.477Z,261.33
2023-03-23T08:13:59.798Z,269.01
2023-03-23T08:15:03.193Z,228.05
2023-03-23T08:16:06.420Z,197.33
2023-03-23T08:17:09.839Z,184.53
2023-03-23T08:18:11.981Z,171.73
2023-03-23T08:19:15.396Z,197.33
2023-03-23T08:20:18.575Z,166.61
2023-03-23T08:21:21.893Z,158.93
2023-03-23T08:22:25.253Z,138.45
2023-03-23T08:23:28.651Z,161.49
2023-03-23T08:24:31.845Z,215.25
2023-03-23T08:25:34.041Z,181.97
2023-03-23T08:26:36.337Z,169.17
2023-03-23T08:27:38.681Z,169.17
2023-03-23T08:28:40.957Z,138.45
2023-03-23T08:29:44.376Z,143.57
2023-03-23T08:30:47.632Z,169.17
2023-03-23T08:31:50.909Z,123.09
2023-03-23T08:32:54.180Z,138.45
2023-03-23T08:33:57.559Z,115.41
2023-03-23T08:35:00.768Z,92.37
2023-03-23T08:36:04.038Z,112.85
2023-03-23T08:37:07.398Z,112.85
2023-03-23T08:38:11.384Z,143.57
2023-03-23T08:39:14.593Z,87.25
2023-03-23T08:40:17.916Z,87.25
2023-03-23T08:41:21.352Z,84.69
2023-03-23T08:42:23.475Z,112.85
2023-03-23T08:43:26.953Z,107.73
2023-03-23T08:44:30.067Z,133.33
2023-03-23T08:45:33.393Z,187.09
2023-03-23T08:46:36.731Z,125.65
2023-03-23T08:47:39.961Z,94.93
2023-03-23T08:48:43.226Z,102.61
2023-03-23T08:49:45.585Z,141.01
2023-03-23T08:50:48.027Z,161.49
2023-03-23T08:51:51.212Z,107.73
2023-03-23T08:52:53.562Z,230.61
2023-03-23T08:53:55.756Z,276.69
2023-03-23T08:54:59.121Z,184.53
2023-03-23T08:56:02.390Z,230.61
2023-03-23T08:57:05.738Z,312.53
2023-03-23T08:58:09.047Z,294.61
2023-03-23T08:59:12.313Z,271.57
2023-03-23T09:00:15.540Z,153.81
2023-03-23T09:01:18.813Z,176.85
2023-03-23T09:02:22.086Z,269.01
2023-03-23T09:03:25.443Z,251.09
2023-03-23T09:04:28.675Z,202.45
2023-03-23T09:05:32.020Z,176.85
2023-03-23T09:06:35.464Z,169.17
2023-03-23T09:07:37.707Z,164.05
2023-03-23T09:08:40.878Z,164.05
2023-03-23T09:09:44.269Z,187.09
2023-03-23T09:10:47.468Z,158.93
2023-03-23T09:11:50.806Z,143.57
2023-03-23T09:12:54.044Z,128.21
2023-03-23T09:13:57.414Z,153.81
2023-03-23T09:14:59.666Z,158.93
2023-03-23T09:16:01.965Z,128.21
2023-03-23T09:17:05.254Z,125.65
2023-03-23T09:18:08.558Z,41.35
2023-03-23T09:19:11.951Z,151.25
2023-03-23T09:20:15.183Z,233.17
2023-03-23T09:21:18.538Z,258.77
2023-03-23T09:22:21.861Z,261.33
2023-03-23T09:23:25.192Z,197.33
2023-03-23T09:24:28.293Z,228.05
2023-03-23T09:25:31.707Z,251.09
2023-03-23T09:26:34.930Z,253.65
2023-03-23T09:27:38.169Z,256.21
2023-03-23T09:28:41.562Z,258.77
2023-03-23T09:29:43.853Z,258.77
2023-03-23T09:30:47.122Z,263.89
2023-03-23T09:31:50.446Z,251.09
2023-03-23T09:32:53.858Z,253.65
2023-03-23T09:33:57.078Z,266.45
2023-03-23T09:35:00.283Z,245.97
2023-03-23T09:36:03.573Z,258.77
2023-03-23T09:37:05.931Z,245.97
2023-03-23T09:38:08.259Z,261.33
2023-03-23T09:39:10.450Z,263.89
2023-03-23T09:40:12.769Z,263.89
2023-03-23T09:41:16.214Z,263.89
2023-03-23T09:42:19.349Z,266.45
2023-03-23T09:43:22.815Z,263.89
2023-03-23T09:44:25.935Z,261.33
2023-03-23T09:45:29.400Z,253.65
2023-03-23T09:46:32.611Z,266.45
2023-03-23T09:47:35.798Z,266.45
2023-03-23T09:48:39.223Z,276.69
2023-03-23T09:49:42.557Z,274.13
2023-03-23T09:50:45.694Z,274.13
2023-03-23T09:51:49.084Z,263.89
2023-03-23T09:52:52.395Z,197.33
2023-03-23T09:53:54.746Z,151.25
2023-03-23T09:54:57.918Z,125.65
2023-03-23T09:56:01.344Z,146.13
2023-03-23T09:57:04.629Z,125.65
2023-03-23T09:58:07.846Z,130.77
2023-03-23T09:59:11.215Z,107.73
2023-03-23T10:00:14.809Z,112.85
2023-03-23T10:01:17.259Z,105.17
2023-03-23T10:02:19.583Z,102.61
2023-03-23T10:03:22.931Z,120.53
2023-03-23T10:04:25.100Z,107.73
2023-03-23T10:06:30.805Z,94.93
2023-03-23T10:07:33.997Z,102.61
2023-03-23T10:08:37.393Z,100.05
2023-03-23T10:09:40.603Z,94.93
2023-03-23T10:10:43.778Z,100.05
2023-03-23T10:11:47.158Z,89.81
2023-03-23T10:12:50.471Z,89.81
2023-03-23T10:13:53.676Z,107.73
2023-03-23T10:14:57.025Z,125.65
2023-03-23T10:16:00.248Z,128.21
2023-03-23T10:17:03.548Z,133.33
2023-03-23T10:18:06.843Z,117.97
2023-03-23T10:19:09.290Z,110.29
2023-03-23T10:20:12.477Z,105.17
2023-03-23T10:21:15.775Z,117.97
2023-03-23T10:22:19.028Z,115.41
2023-03-23T10:23:22.437Z,112.85
2023-03-23T10:24:25.610Z,117.97
2023-03-23T10:25:28.908Z,102.61
2023-03-23T10:26:32.360Z,110.29
2023-03-23T10:27:34.509Z,110.29
2023-03-23T10:28:36.884Z,112.85
2023-03-23T10:29:39.272Z,135.89
2023-03-23T10:30:41.423Z,128.21
2023-03-23T10:31:44.846Z,115.41
2023-03-23T10:33:51.479Z,128.21
2023-03-23T10:34:54.764Z,133.33
2023-03-23T10:35:57.907Z,0
2023-03-23T10:37:01.246Z,187.09
2023-03-23T10:38:04.473Z,158.93
2023-03-23T10:39:07.787Z,120.53
2023-03-23T10:40:11.183Z,120.53
2023-03-23T10:41:15.181Z,120.53
2023-03-23T10:42:18.418Z,146.13
2023-03-23T10:43:21.647Z,135.89
2023-03-23T10:44:24.100Z,117.97
2023-03-23T10:45:27.449Z,117.97
2023-03-23T10:46:30.625Z,115.41
2023-03-23T10:47:33.926Z,120.53
2023-03-23T10:48:37.104Z,128.21
2023-03-23T10:49:40.412Z,133.33
2023-03-23T10:50:43.786Z,128.21
2023-03-23T10:51:46.989Z,123.09
2023-03-23T10:52:49.380Z,107.73
2023-03-23T10:53:51.621Z,110.29
2023-03-23T10:54:54.927Z,110.29
2023-03-23T10:55:57.418Z,128.21
2023-03-23T10:56:59.733Z,205.01
2023-03-23T10:58:02.998Z,233.17
2023-03-23T10:59:06.108Z,243.41
2023-03-23T11:00:09.419Z,197.33
2023-03-23T11:01:12.795Z,220.37
2023-03-23T11:02:16.042Z,169.17
2023-03-23T11:03:19.371Z,164.05
2023-03-23T11:05:26.017Z,176.85
2023-03-23T11:06:29.230Z,274.13
2023-03-23T11:07:32.541Z,315.09
2023-03-23T11:08:35.921Z,-306.99
2023-03-23T11:09:39.175Z,-306.99
2023-03-23T11:10:41.384Z,-304.43
2023-03-23T11:11:44.791Z,-299.31
2023-03-23T11:12:48.039Z,-304.43
2023-03-23T11:13:51.349Z,-301.87
2023-03-23T11:14:54.603Z,-319.79
2023-03-23T11:17:01.237Z,253.65
2023-03-23T11:18:03.619Z,235.73
2023-03-23T11:19:05.741Z,253.65
2023-03-23T11:20:09.150Z,235.73
2023-03-23T11:21:12.408Z,222.93
2023-03-23T11:22:15.631Z,235.73
2023-03-23T11:23:18.908Z,225.49
2023-03-23T11:24:22.372Z,222.93
2023-03-23T11:25:25.578Z,212.69
2023-03-23T11:26:28.863Z,207.57
2023-03-23T11:27:32.293Z,212.69
2023-03-23T11:28:35.567Z,202.45
2023-03-23T11:29:37.827Z,207.57
2023-03-23T11:30:39.989Z,210.13
2023-03-23T11:31:43.348Z,192.21
2023-03-23T11:32:46.765Z,189.65
2023-03-23T11:33:50.027Z,189.65
2023-03-23T11:34:53.260Z,181.97
2023-03-23T11:35:56.582Z,184.53
2023-03-23T11:36:59.873Z,184.53
2023-03-23T11:38:03.036Z,169.17
2023-03-23T11:39:06.334Z,166.61
2023-03-23T11:40:09.756Z,164.05
2023-03-23T11:41:13.005Z,148.69
2023-03-23T11:42:16.264Z,156.37
2023-03-23T11:43:19.581Z,164.05
2023-03-23T11:44:21.860Z,158.93
2023-03-23T11:45:25.110Z,151.25
2023-03-23T11:46:28.547Z,153.81
2023-03-23T11:47:31.769Z,164.05
2023-03-23T11:48:34.974Z,151.25
2023-03-23T11:49:38.292Z,151.25
2023-03-23T11:50:41.563Z,153.81
2023-03-23T11:51:44.001Z,148.69
2023-03-23T11:52:46.303Z,151.25
2023-03-23T11:53:48.541Z,161.49
2023-03-23T11:54:50.878Z,156.37
2023-03-23T11:55:54.094Z,158.93
2023-03-23T11:56:57.495Z,153.81
2023-03-23T11:58:00.841Z,135.89
2023-03-23T11:59:03.966Z,130.77
2023-03-23T12:00:07.464Z,133.33
2023-03-23T12:01:10.747Z,143.57
2023-03-23T12:02:13.880Z,130.77
2023-03-23T12:03:17.289Z,120.53
2023-03-23T12:04:20.590Z,128.21
2023-03-23T12:05:23.791Z,110.29
2023-03-23T12:06:27.147Z,112.85
2023-03-23T12:07:30.427Z,110.29
2023-03-23T12:08:32.630Z,107.73
2023-03-23T12:09:35.999Z,105.17
2023-03-23T12:10:39.343Z,97.49
2023-03-23T12:11:42.686Z,94.93
2023-03-23T12:12:45.882Z,115.41
2023-03-23T12:13:49.066Z,94.93
2023-03-23T12:14:52.496Z,115.41
2023-03-23T12:15:54.755Z,112.85
2023-03-23T12:16:57.145Z,117.97
2023-03-23T12:17:59.501Z,123.09
2023-03-23T12:19:01.822Z,41.35
2023-03-23T12:20:04.952Z,92.37
2023-03-23T12:21:08.188Z,89.81
2023-03-23T12:22:11.655Z,97.49
2023-03-23T12:23:14.930Z,92.37
2023-03-23T12:24:18.938Z,97.49
2023-03-23T12:25:22.161Z,92.37
2023-03-23T12:26:25.313Z,89.81
2023-03-23T12:27:28.783Z,82.13
2023-03-23T12:28:32.091Z,66.77
2023-03-23T12:29:35.384Z,69.33
2023-03-23T12:30:38.675Z,66.77
2023-03-23T12:31:41.912Z,59.09
2023-03-23T12:32:44.086Z,56.53
2023-03-23T12:33:47.561Z,71.89
2023-03-23T12:34:50.843Z,69.33
2023-03-23T12:35:54.169Z,74.45
2023-03-23T12:36:57.393Z,71.89
2023-03-23T12:38:00.737Z,84.69
2023-03-23T12:39:04.019Z,66.77
2023-03-23T12:40:06.328Z,69.33
2023-03-23T12:41:08.639Z,64.21
2023-03-23T12:42:10.945Z,56.53
2023-03-23T12:43:13.329Z,87.25
2023-03-23T12:44:16.512Z,79.57
2023-03-23T12:45:19.828Z,56.53
2023-03-23T12:46:22.949Z,56.53
2023-03-23T12:47:26.302Z,59.09
2023-03-23T12:48:29.708Z,53.97
2023-03-23T12:49:32.823Z,66.77
2023-03-23T12:50:36.141Z,56.53
2023-03-23T12:51:39.412Z,51.41
2023-03-23T12:52:42.696Z,41.17
2023-03-23T12:53:45.994Z,48.85
2023-03-23T12:54:49.286Z,46.29
2023-03-23T12:55:52.596Z,48.85
2023-03-23T12:56:54.886Z,51.41
2023-03-23T12:57:58.196Z,48.85
2023-03-23T12:59:01.473Z,66.77
2023-03-23T13:00:04.752Z,112.85
2023-03-23T13:01:08.131Z,148.69
2023-03-23T13:02:11.368Z,102.61
2023-03-23T13:03:14.717Z,79.57
2023-03-23T13:04:16.999Z,77.01
2023-03-23T13:05:19.383Z,82.13
2023-03-23T13:06:22.638Z,94.93
2023-03-23T13:07:25.982Z,69.33
2023-03-23T13:08:29.128Z,82.13
2023-03-23T13:09:32.430Z,94.93
2023-03-23T13:11:39.018Z,82.13
2023-03-23T13:12:42.305Z,97.49
2023-03-23T13:13:45.741Z,120.53
2023-03-23T13:14:49.036Z,120.53
2023-03-23T13:15:52.192Z,102.61
2023-03-23T13:16:55.571Z,84.69
2023-03-23T13:17:58.771Z,77.01